Orbital elements of SL-12 R/B(2)
| Launched | 21 April 1984 |
| Flight ended | – |
| Launch site | Tyuratam Missile and Space Center, Kazakhstan (Also known as Baikonur Cosmodrome) |
| Owner | Commonwealth of Independent States (former USSR) |
| NORAD ID | 14943 |
| Date fetched |
Epoch osculation |
Inc. [°] |
Ecc. | RA asc node [hr] |
Arg Peri. [°] |
Mean anom [°] |
Mean motion [rev/day] |
Abs. mag |
| Date fetched |
Epoch osculation |
Inc. [°] |
Ecc. | RA asc node [hr] |
Arg Peri. [°] |
Mean anom [°] |
Mean motion [rev/day] |
Abs. mag |
| 2026 May 05 17:57 | 2026 May 05 13:13:13 | 9.6714 | 0.00138 | 21.0215 | 223.9737 | 104.7231 | 0.98627 | – |
| 2026 May 04 17:57 | 2026 Apr 30 12:53:02 | 9.6809 | 0.00138 | 21.0234 | 223.9534 | 104.7231 | 0.98627 | – |
| 2026 May 03 17:57 | 2026 Apr 30 12:53:02 | 9.6809 | 0.00138 | 21.0234 | 223.9534 | 104.7231 | 0.98627 | – |
| 2026 May 02 17:57 | 2026 Apr 30 12:53:02 | 9.6809 | 0.00138 | 21.0234 | 223.9534 | 104.7231 | 0.98627 | – |
| 2026 May 01 17:56 | 2026 Apr 30 12:53:02 | 9.6809 | 0.00138 | 21.0234 | 223.9534 | 104.7231 | 0.98627 | – |
| 2026 Apr 30 17:56 | 2026 Apr 30 12:53:02 | 9.6809 | 0.00138 | 21.0234 | 223.9534 | 104.7231 | 0.98627 | – |
| 2026 Apr 29 17:57 | 2026 Apr 24 11:35:57 | 9.6922 | 0.00137 | 21.0257 | 223.7582 | 104.7231 | 0.98627 | – |
| 2026 Apr 28 17:56 | 2026 Apr 24 11:35:57 | 9.6922 | 0.00137 | 21.0257 | 223.7582 | 104.7231 | 0.98627 | – |
| 2026 Apr 27 17:58 | 2026 Apr 24 11:35:57 | 9.6922 | 0.00137 | 21.0257 | 223.7582 | 104.7231 | 0.98627 | – |
| 2026 Apr 26 17:58 | 2026 Apr 24 11:35:57 | 9.6922 | 0.00137 | 21.0257 | 223.7582 | 104.7231 | 0.98627 | – |
| 2026 Apr 25 17:58 | 2026 Apr 24 11:35:57 | 9.6922 | 0.00137 | 21.0257 | 223.7582 | 104.7231 | 0.98627 | – |
| 2026 Apr 24 17:59 | 2026 Apr 24 11:35:57 | 9.6922 | 0.00137 | 21.0257 | 223.7582 | 104.7231 | 0.98627 | – |
| 2026 Apr 23 17:57 | 2026 Apr 19 10:14:33 | 9.7014 | 0.00137 | 21.0278 | 224.0227 | 104.7231 | 0.98627 | – |
| 2026 Apr 22 17:57 | 2026 Apr 19 10:14:33 | 9.7014 | 0.00137 | 21.0278 | 224.0227 | 104.7231 | 0.98627 | – |
| 2026 Apr 21 17:57 | 2026 Apr 19 10:14:33 | 9.7014 | 0.00137 | 21.0278 | 224.0227 | 104.7231 | 0.98627 | – |
| 2026 Apr 20 17:57 | 2026 Apr 19 10:14:33 | 9.7014 | 0.00137 | 21.0278 | 224.0227 | 104.7231 | 0.98627 | – |
| 2026 Apr 19 17:58 | 2026 Apr 19 10:14:33 | 9.7014 | 0.00137 | 21.0278 | 224.0227 | 104.7231 | 0.98627 | – |
| 2026 Apr 18 17:56 | 2026 Apr 12 20:59:34 | 9.7131 | 0.00136 | 21.0304 | 224.6710 | 104.7231 | 0.98627 | – |
| 2026 Apr 16 17:57 | 2026 Apr 12 20:59:34 | 9.7131 | 0.00136 | 21.0304 | 224.6710 | 104.7231 | 0.98627 | – |
| 2026 Apr 14 17:57 | 2026 Apr 12 20:59:34 | 9.7131 | 0.00136 | 21.0304 | 224.6710 | 104.7231 | 0.98627 | – |
| 2026 Apr 13 17:57 | 2026 Apr 12 20:59:34 | 9.7131 | 0.00136 | 21.0304 | 224.6710 | 104.7231 | 0.98627 | – |
| 2026 Apr 12 17:57 | 2026 Apr 08 05:16:38 | 9.7216 | 0.00136 | 21.0322 | 225.0097 | 104.7231 | 0.98627 | – |
| 2026 Apr 11 17:57 | 2026 Apr 08 05:16:38 | 9.7216 | 0.00136 | 21.0322 | 225.0097 | 104.7231 | 0.98627 | – |
| 2026 Apr 10 17:58 | 2026 Apr 08 05:16:38 | 9.7216 | 0.00136 | 21.0322 | 225.0097 | 104.7231 | 0.98627 | – |
| 2026 Apr 09 18:01 | 2026 Apr 08 05:16:38 | 9.7216 | 0.00136 | 21.0322 | 225.0097 | 104.7231 | 0.98627 | – |
| 2026 Apr 08 17:57 | 2026 Apr 08 05:16:38 | 9.7216 | 0.00136 | 21.0322 | 225.0097 | 104.7231 | 0.98627 | – |